Time;durP1;ratioP1;P1;durP2;ratioP2;P2;SDS_P1;SDS_P2;PMS_P1;PMS_P2;Temp;Humidity;BMP_temperature;BMP_pressure;BME280_temperature;BME280_humidity;BME280_pressure;Samples;Min_cycle;Max_cycle;Signal;HPM_P1;HPM_P2
2019/04/13 00:07:35;;;;;;;24.2;21.6;;;;;;;4.26;58.94727;961.4124;;;;
2019/04/13 00:10:24;;;;;;;24.4;20.8;;;;;;;4.27;58.51758;961.3903;;;;
2019/04/13 00:13:06;;;;;;;23.9;20.8;;;;;;;4.4;58.72754;961.4442;;;;
2019/04/13 00:15:49;;;;;;;24.9;22.2;;;;;;;4.27;59.43848;961.479;;;;
2019/04/13 00:18:31;;;;;;;24.2;21.4;;;;;;;4.23;59.375;961.5245;;;;
2019/04/13 00:21:13;;;;;;;25.2;21.8;;;;;;;4.26;59.40137;961.5056;;;;
2019/04/13 00:23:58;;;;;;;23.5;20.8;;;;;;;4.31;58.44238;961.5354;;;;
2019/04/13 00:26:41;;;;;;;26.4;22.2;;;;;;;4.29;58.30469;961.4861;;;;
2019/04/13 00:29:05;;;;;;;24.1;21.5;;;;;;;4.3;59.02051;961.4394;;;;
2019/04/13 00:31:49;;;;;;;25.4;22.6;;;;;;;4.23;58.71484;961.4066;;;;
2019/04/13 00:34:44;;;;;;;26.9;23.4;;;;;;;4.27;58.84668;961.3864;;;;
2019/04/13 00:37:21;;;;;;;26.2;23.2;;;;;;;4.14;60.64648;961.4177;;;;
2019/04/13 00:40:05;;;;;;;26.7;23.8;;;;;;;4.29;59.36035;961.347;;;;
2019/04/13 00:43:04;;;;;;;26.3;23.2;;;;;;;4.28;59.08594;961.267;;;;
2019/04/13 00:45:41;;;;;;;28;23.4;;;;;;;4.3;59.28223;961.3253;;;;
2019/04/13 00:48:31;;;;;;;26.8;23.2;;;;;;;4.13;60.20215;961.3762;;;;
2019/04/13 00:50:59;;;;;;;26.6;23.5;;;;;;;4.1;59.3916;961.3192;;;;
2019/04/13 00:53:41;;;;;;;30;25.4;;;;;;;4.13;59.30273;961.3976;;;;
2019/04/13 00:56:34;;;;;;;26.1;23.1;;;;;;;4.21;59.48535;961.3699;;;;
2019/04/13 00:59:24;;;;;;;28.6;25.5;;;;;;;4.08;59.95605;961.3591;;;;
2019/04/13 01:01:57;;;;;;;29.6;24.6;;;;;;;4.11;59.7334;961.3186;;;;
2019/04/13 01:04:27;;;;;;;28.5;24.8;;;;;;;4.07;60.58008;961.3641;;;;
2019/04/13 01:06:54;;;;;;;28.7;25.6;;;;;;;4.11;60.54199;961.3519;;;;
2019/04/13 01:09:43;;;;;;;27.8;24.5;;;;;;;4.07;60.73926;961.3131;;;;
2019/04/13 01:12:29;;;;;;;29.3;25.6;;;;;;;4.18;60.64063;961.3008;;;;
2019/04/13 01:15:17;;;;;;;29.4;25.1;;;;;;;4.08;60.62793;961.3038;;;;
2019/04/13 01:18:08;;;;;;;26.7;23.7;;;;;;;4.07;60.46582;961.2498;;;;
2019/04/13 01:20:55;;;;;;;30.2;25.8;;;;;;;4.1;60.51563;961.2266;;;;
2019/04/13 01:23:50;;;;;;;27.8;24.8;;;;;;;4.07;60.48926;961.2202;;;;
2019/04/13 01:26:13;;;;;;;30.2;25.8;;;;;;;3.97;61.54199;961.2072;;;;
2019/04/13 01:29:04;;;;;;;28.5;25.2;;;;;;;3.9;61.06836;961.2206;;;;
2019/04/13 01:31:31;;;;;;;28.9;25;;;;;;;4;60.58203;961.2043;;;;
2019/04/13 01:34:22;;;;;;;31.8;25.3;;;;;;;3.94;60.75391;961.2261;;;;
2019/04/13 01:37:07;;;;;;;29.5;26.3;;;;;;;3.95;62.0166;961.1752;;;;
2019/04/13 01:39:53;;;;;;;29.1;26;;;;;;;3.9;62.12305;961.1913;;;;
2019/04/13 01:42:18;;;;;;;29.1;26;;;;;;;3.84;62.47754;961.1199;;;;
2019/04/13 01:45:01;;;;;;;28.8;25.7;;;;;;;3.9;61.82813;961.0988;;;;
2019/04/13 01:47:50;;;;;;;30.5;26.7;;;;;;;3.96;62.10938;961.0772;;;;
2019/04/13 01:50:33;;;;;;;30.7;26.5;;;;;;;3.86;62.08398;961.0297;;;;
2019/04/13 01:53:16;;;;;;;32.9;27.7;;;;;;;3.84;62.51172;960.9553;;;;
2019/04/13 01:56:03;;;;;;;30.9;26.3;;;;;;;3.93;62.17383;960.923;;;;
2019/04/13 01:58:53;;;;;;;29;25.4;;;;;;;3.8;62.63281;960.8736;;;;
2019/04/13 02:04:33;;;;;;;29.5;25.9;;;;;;;3.77;62.79785;960.9141;;;;
2019/04/13 02:07:08;;;;;;;31.3;26;;;;;;;3.6;63.15918;960.9987;;;;
2019/04/13 02:09:34;;;;;;;31.1;27.1;;;;;;;3.6;63.3623;961.058;;;;
2019/04/13 02:12:19;;;;;;;31.2;26.7;;;;;;;3.5;64.2002;961.0948;;;;
2019/04/13 02:15:11;;;;;;;32.5;26;;;;;;;3.54;63.46777;961.1256;;;;
2019/04/13 02:18:03;;;;;;;30.9;25.4;;;;;;;3.72;62.33594;961.1038;;;;
2019/04/13 02:20:55;;;;;;;30.1;26.9;;;;;;;3.71;62.66406;961.0664;;;;
2019/04/13 02:23:26;;;;;;;33.1;27;;;;;;;3.77;62.95703;961.0327;;;;
2019/04/13 02:26:15;;;;;;;34;27.1;;;;;;;3.62;62.88867;961.0394;;;;
2019/04/13 02:29:01;;;;;;;30.9;26.8;;;;;;;3.64;62.55078;961.1183;;;;
2019/04/13 02:31:55;;;;;;;30.5;27.2;;;;;;;3.7;62.12891;961.0756;;;;
2019/04/13 02:34:46;;;;;;;31.6;26.9;;;;;;;3.71;62.60742;961.0658;;;;
2019/04/13 02:37:11;;;;;;;33.5;27.6;;;;;;;3.64;63.30176;961.0251;;;;
2019/04/13 02:39:55;;;;;;;32.6;27.6;;;;;;;3.52;63.5332;961.0549;;;;
2019/04/13 02:42:40;;;;;;;31.1;27.2;;;;;;;3.58;63.54199;961.0083;;;;
2019/04/13 02:45:28;;;;;;;33.2;27.5;;;;;;;3.53;63.625;960.949;;;;
2019/04/13 02:48:19;;;;;;;31.4;27.3;;;;;;;3.46;63.55762;960.9717;;;;
2019/04/13 02:51:05;;;;;;;31.9;27.4;;;;;;;3.45;64.08984;960.9803;;;;
2019/04/13 02:53:52;;;;;;;31;27.1;;;;;;;3.49;63.40234;960.9186;;;;
2019/04/13 02:56:39;;;;;;;30.8;27.4;;;;;;;3.44;64.25879;960.9647;;;;
2019/04/13 02:59:27;;;;;;;31;26.9;;;;;;;3.47;63.97852;960.8992;;;;
2019/04/13 03:02:16;;;;;;;31.3;27.4;;;;;;;3.46;63.64844;960.8872;;;;
2019/04/13 03:05:04;;;;;;;30.6;27.3;;;;;;;3.22;64.44043;960.8547;;;;
2019/04/13 03:07:53;;;;;;;35;29.1;;;;;;;3.25;65.31934;960.8858;;;;
2019/04/13 03:10:39;;;;;;;34.2;30.2;;;;;;;3.23;65.22461;960.9127;;;;
2019/04/13 03:13:27;;;;;;;33.9;28.4;;;;;;;3.45;63.85156;960.8539;;;;
2019/04/13 03:19:04;;;;;;;35.1;30.5;;;;;;;3.16;65.31543;960.8167;;;;
2019/04/13 03:21:48;;;;;;;34.5;29.2;;;;;;;3.11;65.56836;960.8121;;;;
2019/04/13 03:24:32;;;;;;;36.7;30.6;;;;;;;3.07;65.30176;960.7305;;;;
2019/04/13 03:27:22;;;;;;;36.1;30;;;;;;;3.05;65.74121;960.7778;;;;
2019/04/13 03:30:03;;;;;;;35;30;;;;;;;3.07;65.3584;960.7896;;;;
2019/04/13 03:32:46;;;;;;;35;30;;;;;;;3.07;65.18848;960.7983;;;;
2019/04/13 03:35:27;;;;;;;36.1;30.7;;;;;;;3;65.49512;960.7274;;;;
2019/04/13 03:38:08;;;;;;;37.8;30.3;;;;;;;3.01;65.88184;960.7559;;;;
2019/04/13 03:40:51;;;;;;;34.4;28;;;;;;;2.98;65.96875;960.7119;;;;
2019/04/13 03:43:34;;;;;;;37.5;30.8;;;;;;;3.02;65.55566;960.6792;;;;
2019/04/13 03:46:15;;;;;;;35.9;29.5;;;;;;;3.05;64.94727;960.6641;;;;
2019/04/13 03:48:57;;;;;;;37.5;30.9;;;;;;;3.09;65.54395;960.6447;;;;
2019/04/13 03:51:38;;;;;;;35.6;29.9;;;;;;;3.01;65.47363;960.6675;;;;
2019/04/13 03:54:27;;;;;;;37.6;29.7;;;;;;;3;65.22461;960.6635;;;;
2019/04/13 03:57:10;;;;;;;36.6;29.8;;;;;;;2.82;66.14746;960.6603;;;;
2019/04/13 03:59:53;;;;;;;36.7;29.6;;;;;;;3.05;65.32227;960.7274;;;;
